Time;durP1;ratioP1;P1;durP2;ratioP2;P2;SDS_P1;SDS_P2;PMS_P1;PMS_P2;Temp;Humidity;BMP_temperature;BMP_pressure;BME280_temperature;BME280_humidity;BME280_pressure;Samples;Min_cycle;Max_cycle;Signal;HPM_P1;HPM_P2
2023/10/06 00:02:20;;;;;;;12.40;5.40;;;;;;;6.53;100.00;94926.00;5032447;28;20053;-59
2023/10/06 00:04:47;;;;;;;13.45;5.20;;;;;;;6.52;100.00;94923.66;5036448;28;20560;-59
2023/10/06 00:07:17;;;;;;;12.38;5.30;;;;;;;6.48;100.00;94926.34;5049724;28;20051;-59
2023/10/06 00:09:44;;;;;;;12.57;5.10;;;;;;;6.45;100.00;94921.59;5049926;28;20101;-59
2023/10/06 00:12:13;;;;;;;16.85;9.07;;;;;;;6.32;100.00;94915.56;5049695;28;20429;-59
2023/10/06 00:14:40;;;;;;;13.43;6.30;;;;;;;6.29;100.00;94916.25;5049865;28;20037;-59
2023/10/06 00:17:17;;;;;;;11.77;5.40;;;;;;;6.27;100.00;94918.56;5049229;28;20045;-59
2023/10/06 00:19:46;;;;;;;16.63;7.18;;;;;;;6.20;100.00;94911.06;5047360;28;20040;-60
2023/10/06 00:24:50;;;;;;;13.13;5.45;;;;;;;6.12;100.00;94919.50;5049616;28;20045;-59
2023/10/06 00:27:23;;;;;;;15.32;6.45;;;;;;;6.16;100.00;94915.66;5049148;28;20047;-59
2023/10/06 00:29:56;;;;;;;13.23;5.93;;;;;;;6.14;100.00;94909.00;5037247;28;20041;-60
2023/10/06 00:32:27;;;;;;;12.65;5.70;;;;;;;6.00;100.00;94918.50;5048718;28;20461;-59
2023/10/06 00:35:08;;;;;;;14.10;5.90;;;;;;;6.09;100.00;94923.69;5049613;28;20504;-59
2023/10/06 00:37:39;;;;;;;14.18;5.47;;;;;;;6.07;100.00;94917.03;5048609;28;20840;-59
2023/10/06 00:40:19;;;;;;;12.85;5.93;;;;;;;6.02;100.00;94918.13;5048661;28;20043;-59
2023/10/06 00:42:57;;;;;;;14.05;5.80;;;;;;;5.96;100.00;94925.03;5049696;28;20051;-59
2023/10/06 00:45:24;;;;;;;13.77;5.43;;;;;;;5.97;100.00;94921.94;5048578;28;20651;-59
2023/10/06 00:47:55;;;;;;;13.47;5.70;;;;;;;6.02;100.00;94918.13;5049352;28;20520;-59
2023/10/06 00:50:23;;;;;;;12.32;5.57;;;;;;;5.99;100.00;94918.84;5048510;28;20179;-59
2023/10/06 00:52:51;;;;;;;11.32;5.13;;;;;;;5.95;100.00;94923.44;5049170;28;20055;-59
2023/10/06 00:55:19;;;;;;;12.02;5.30;;;;;;;5.94;100.00;94911.75;5049063;28;20041;-59
2023/10/06 00:57:53;;;;;;;13.38;5.72;;;;;;;5.91;100.00;94907.00;5049022;28;20049;-59
2023/10/06 01:00:21;;;;;;;12.77;5.87;;;;;;;5.93;100.00;94923.78;5055517;28;20037;-59
2023/10/06 01:02:48;;;;;;;14.02;5.55;;;;;;;5.92;100.00;94919.47;5030669;28;20083;-59
2023/10/06 01:05:16;;;;;;;13.13;5.93;;;;;;;5.88;100.00;94915.91;5040245;28;20040;-59
2023/10/06 01:07:46;;;;;;;16.27;6.30;;;;;;;5.84;100.00;94909.59;5048707;28;20044;-59
2023/10/06 01:10:27;;;;;;;15.05;6.72;;;;;;;5.82;100.00;94917.34;5048718;28;20045;-59
2023/10/06 01:12:56;;;;;;;15.17;6.00;;;;;;;5.78;100.00;94908.31;5049002;28;20049;-59
2023/10/06 01:15:28;;;;;;;13.40;6.10;;;;;;;5.75;100.00;94903.59;5048254;28;21834;-59
2023/10/06 01:17:58;;;;;;;11.93;5.70;;;;;;;5.73;100.00;94905.88;5048599;28;20433;-59
2023/10/06 01:20:34;;;;;;;13.13;5.30;;;;;;;5.67;100.00;94912.75;5049187;28;20055;-59
2023/10/06 01:23:01;;;;;;;13.25;6.07;;;;;;;5.61;100.00;94909.53;5048445;28;20421;-59
2023/10/06 01:25:34;;;;;;;13.50;5.50;;;;;;;5.57;100.00;94922.28;5049029;28;20102;-59
2023/10/06 01:28:05;;;;;;;12.48;5.47;;;;;;;5.49;100.00;94923.31;5048358;28;20071;-60
2023/10/06 01:30:31;;;;;;;14.30;5.63;;;;;;;5.49;100.00;94918.63;5048703;28;20052;-58
2023/10/06 01:32:58;;;;;;;11.55;5.32;;;;;;;5.50;100.00;94920.22;5048375;28;20053;-59
2023/10/06 01:35:26;;;;;;;14.07;6.18;;;;;;;5.48;100.00;94917.06;5048784;28;20052;-59
2023/10/06 01:37:59;;;;;;;16.87;7.70;;;;;;;5.46;100.00;94919.38;5048669;28;20037;-59
2023/10/06 01:42:54;;;;;;;13.15;6.13;;;;;;;5.39;100.00;94924.66;5068618;28;20036;-59
2023/10/06 01:45:21;;;;;;;11.68;5.35;;;;;;;5.26;100.00;94923.22;5067950;28;20164;-59
2023/10/06 01:48:36;;;;;;;13.07;5.72;;;;;;;5.25;100.00;94916.19;5068452;28;20044;-59
2023/10/06 01:50:36;;;;;;;14.63;5.50;;;;;;;5.24;100.00;94917.34;5056836;28;20410;-59
2023/10/06 01:53:06;;;;;;;11.60;5.20;;;;;;;5.22;100.00;94903.31;5068482;28;20504;-59
2023/10/06 01:55:38;;;;;;;13.23;6.32;;;;;;;5.13;100.00;94903.50;5068621;28;20049;-59
2023/10/06 01:58:07;;;;;;;13.02;5.68;;;;;;;5.08;100.00;94898.34;5068163;28;20048;-60
2023/10/06 02:00:35;;;;;;;13.05;5.65;;;;;;;5.12;100.00;94910.88;5068485;28;20428;-59
2023/10/06 02:03:12;;;;;;;12.30;5.23;;;;;;;5.09;100.00;94902.63;5068192;28;20113;-60
2023/10/06 02:05:39;;;;;;;15.88;5.90;;;;;;;5.10;100.00;94901.50;5068694;28;20047;-59
2023/10/06 02:08:06;;;;;;;12.05;5.85;;;;;;;5.07;100.00;94897.56;5068174;28;20048;-59
2023/10/06 02:10:33;;;;;;;11.73;5.57;;;;;;;5.11;100.00;94893.00;5068415;28;20044;-59
2023/10/06 02:13:00;;;;;;;15.60;6.35;;;;;;;5.12;100.00;94891.84;5068149;28;20045;-59
2023/10/06 02:15:26;;;;;;;12.20;5.37;;;;;;;5.09;100.00;94887.13;5050828;28;20047;-59
2023/10/06 02:17:53;;;;;;;12.43;5.63;;;;;;;5.09;100.00;94883.59;5057967;28;20032;-59
2023/10/06 02:22:55;;;;;;;13.60;5.53;;;;;;;5.07;100.00;94883.16;5072115;28;20043;-59
2023/10/06 02:25:22;;;;;;;14.90;5.68;;;;;;;5.07;100.00;94883.97;5070978;28;20680;-59
2023/10/06 02:27:50;;;;;;;12.87;5.50;;;;;;;5.01;100.00;94877.25;5071984;28;20040;-59
2023/10/06 02:30:19;;;;;;;12.40;5.97;;;;;;;4.98;100.00;94883.38;5071398;28;20049;-59
2023/10/06 02:32:46;;;;;;;16.00;6.18;;;;;;;5.04;100.00;94875.72;5071597;28;20053;-59
2023/10/06 02:35:14;;;;;;;14.48;5.90;;;;;;;5.03;100.00;94874.94;5071090;28;20045;-59
2023/10/06 02:37:45;;;;;;;15.18;6.00;;;;;;;4.95;100.00;94882.16;5071309;28;20043;-59
2023/10/06 02:40:12;;;;;;;12.33;5.47;;;;;;;4.91;100.00;94875.03;5071380;28;20409;-59
2023/10/06 02:42:51;;;;;;;13.52;5.90;;;;;;;4.89;100.00;94882.78;5071763;28;20058;-59
2023/10/06 02:45:21;;;;;;;11.80;6.07;;;;;;;4.86;100.00;94884.28;5071097;28;20045;-59
2023/10/06 02:47:48;;;;;;;11.75;5.45;;;;;;;4.80;100.00;94878.31;5058423;28;20052;-59
2023/10/06 02:50:24;;;;;;;14.50;5.68;;;;;;;4.82;100.00;94877.19;5070748;28;20048;-59
2023/10/06 02:52:54;;;;;;;14.47;5.70;;;;;;;4.81;100.00;94876.41;5071388;28;20036;-59
2023/10/06 02:55:30;;;;;;;13.27;5.78;;;;;;;4.78;100.00;94880.59;5070741;28;20464;-59
2023/10/06 02:57:58;;;;;;;12.02;6.00;;;;;;;4.82;100.00;94879.91;5070617;28;20043;-59
2023/10/06 03:02:56;;;;;;;12.27;5.90;;;;;;;4.85;100.00;94874.56;5071121;28;20390;-59
2023/10/06 03:05:33;;;;;;;13.00;5.73;;;;;;;4.80;100.00;94880.25;5070542;28;20530;-59
2023/10/06 03:08:01;;;;;;;12.80;5.97;;;;;;;4.77;100.00;94878.25;5069105;28;20049;-59
2023/10/06 03:10:35;;;;;;;13.52;6.38;;;;;;;4.73;100.00;94875.47;5071018;28;20045;-59
2023/10/06 03:13:03;;;;;;;12.52;6.20;;;;;;;4.67;100.00;94876.06;5058758;28;20048;-59
2023/10/06 03:15:35;;;;;;;11.73;5.93;;;;;;;4.62;100.00;94874.41;5053356;28;20461;-59
2023/10/06 03:18:05;;;;;;;13.90;5.63;;;;;;;4.61;100.00;94875.56;5057801;28;20040;-59
2023/10/06 03:20:48;;;;;;;12.63;5.80;;;;;;;4.58;100.00;94873.56;5070517;28;20041;-59
2023/10/06 03:26:34;;;;;;;13.73;6.40;;;;;;;4.58;100.00;94862.69;5054525;28;20535;-59
2023/10/06 03:29:02;;;;;;;15.13;6.57;;;;;;;4.55;100.00;94860.69;5048451;28;20387;-59
2023/10/06 03:31:44;;;;;;;17.20;6.93;;;;;;;4.54;100.00;94861.81;5050152;28;20464;-59
2023/10/06 03:34:16;;;;;;;14.68;6.65;;;;;;;4.51;100.00;94868.75;5049588;28;20041;-59
2023/10/06 03:36:53;;;;;;;15.80;7.22;;;;;;;4.57;100.00;94863.84;5049958;28;20041;-59
2023/10/06 03:39:30;;;;;;;17.63;7.00;;;;;;;4.57;100.00;94861.91;5048897;28;20052;-59
2023/10/06 03:42:00;;;;;;;14.55;6.68;;;;;;;4.58;100.00;94862.69;5049595;28;20047;-59
2023/10/06 03:44:30;;;;;;;14.10;7.20;;;;;;;4.60;100.00;94865.84;5049283;28;20045;-59
2023/10/06 03:47:00;;;;;;;14.90;6.95;;;;;;;4.52;100.00;94869.53;5049569;28;20053;-59
2023/10/06 03:49:33;;;;;;;13.52;6.95;;;;;;;4.49;100.00;94864.81;5043002;28;20110;-59
2023/10/06 03:51:59;;;;;;;14.00;6.90;;;;;;;4.47;100.00;94870.59;5036950;28;20056;-59
2023/10/06 03:54:26;;;;;;;16.77;7.85;;;;;;;4.48;100.00;94865.94;5049879;28;20037;-59
2023/10/06 03:56:53;;;;;;;15.60;7.57;;;;;;;4.45;100.00;94862.00;5049768;28;20033;-59
2023/10/06 03:59:22;;;;;;;15.95;6.95;;;;;;;4.46;100.00;94860.06;5048762;28;20405;-59
2023/10/06 04:01:51;;;;;;;14.77;6.93;;;;;;;4.41;100.00;94855.69;5049470;28;20045;-59
2023/10/06 04:04:22;;;;;;;15.85;6.65;;;;;;;4.40;100.00;94860.31;5048790;28;20410;-59
2023/10/06 04:06:49;;;;;;;19.02;7.50;;;;;;;4.42;100.00;94856.47;5049489;28;20451;-59
2023/10/06 04:09:26;;;;;;;13.97;7.37;;;;;;;4.33;100.00;94857.47;5049048;28;20436;-59
2023/10/06 04:11:56;;;;;;;16.92;7.32;;;;;;;4.35;100.00;94859.84;5049545;28;20041;-59
2023/10/06 04:14:23;;;;;;;16.00;7.45;;;;;;;4.37;100.00;94861.03;5039137;28;20576;-59
2023/10/06 04:16:53;;;;;;;15.45;7.43;;;;;;;4.39;100.00;94861.47;5029411;28;20044;-59
2023/10/06 04:19:20;;;;;;;14.98;7.13;;;;;;;4.37;100.00;94863.75;5048557;28;20500;-59
2023/10/06 04:21:48;;;;;;;14.97;6.70;;;;;;;4.34;100.00;94864.47;5048882;28;20037;-59
2023/10/06 04:24:14;;;;;;;15.20;6.55;;;;;;;4.33;100.00;94860.19;5051535;28;20383;-59
2023/10/06 04:26:41;;;;;;;16.30;7.15;;;;;;;4.32;100.00;94861.31;5062667;28;20049;-59
2023/10/06 04:29:08;;;;;;;15.57;7.53;;;;;;;4.32;100.00;94865.97;5046927;28;20389;-59
2023/10/06 04:31:36;;;;;;;52.03;23.35;;;;;;;4.33;100.00;94870.28;5048708;28;20045;-59
2023/10/06 04:34:04;;;;;;;19.43;9.00;;;;;;;4.31;100.00;94864.41;5048567;28;20045;-59
2023/10/06 04:36:31;;;;;;;16.60;7.57;;;;;;;4.23;100.00;94862.66;5049044;28;20444;-59
2023/10/06 04:38:58;;;;;;;19.65;7.80;;;;;;;4.15;100.00;94869.84;5047568;28;20410;-59
2023/10/06 04:41:25;;;;;;;16.77;7.85;;;;;;;4.15;100.00;94869.84;5048909;28;20047;-59
2023/10/06 04:43:52;;;;;;;26.20;14.48;;;;;;;4.12;100.00;94876.72;5080526;28;20090;-59
2023/10/06 04:46:19;;;;;;;18.20;8.53;;;;;;;4.11;100.00;94863.53;5048240;28;20045;-59
2023/10/06 04:48:48;;;;;;;16.95;7.65;;;;;;;4.08;100.00;94867.72;5048531;28;20059;-59
2023/10/06 04:51:15;;;;;;;15.80;7.63;;;;;;;4.09;100.00;94857.66;5048318;28;20067;-59
2023/10/06 04:53:45;;;;;;;15.48;7.38;;;;;;;4.09;100.00;94858.44;5048790;28;20482;-59
2023/10/06 04:56:12;;;;;;;22.67;9.80;;;;;;;4.08;100.00;94856.84;5048483;28;20049;-59
2023/10/06 04:58:39;;;;;;;38.90;14.77;;;;;;;4.03;100.00;94857.13;5048193;28;20527;-59
2023/10/06 05:01:07;;;;;;;29.90;11.13;;;;;;;4.04;100.00;94852.47;5048326;28;20045;-59
2023/10/06 05:03:44;;;;;;;19.30;8.30;;;;;;;3.99;100.00;94856.25;5048107;28;20433;-59
2023/10/06 05:06:15;;;;;;;17.27;7.88;;;;;;;4.00;100.00;94841.50;5047617;28;20126;-59
2023/10/06 05:08:52;;;;;;;18.92;7.75;;;;;;;3.95;100.00;94848.00;5047879;28;20041;-59
2023/10/06 05:11:20;;;;;;;17.87;7.47;;;;;;;3.97;100.00;94851.16;5048038;28;20470;-59
2023/10/06 05:13:53;;;;;;;21.13;8.60;;;;;;;3.96;100.00;94848.78;5048014;28;20041;-59
2023/10/06 05:16:22;;;;;;;21.13;8.27;;;;;;;3.97;100.00;94855.81;5047554;28;20735;-59
2023/10/06 05:18:51;;;;;;;18.33;8.43;;;;;;;3.96;100.00;94851.50;5048169;28;20033;-59
2023/10/06 05:21:18;;;;;;;15.80;8.07;;;;;;;3.98;100.00;94860.09;5063321;28;20094;-59
2023/10/06 05:23:46;;;;;;;16.80;7.80;;;;;;;3.97;100.00;94855.81;5048004;28;20044;-59
2023/10/06 05:26:14;;;;;;;19.48;8.80;;;;;;;3.94;100.00;94870.88;5047851;28;20076;-59
2023/10/06 05:28:42;;;;;;;30.90;14.52;;;;;;;3.82;100.00;94862.00;5063166;28;20045;-59
2023/10/06 05:31:10;;;;;;;56.42;26.00;;;;;;;3.74;100.00;94861.03;5047768;28;20494;-60
2023/10/06 05:33:40;;;;;;;51.85;22.58;;;;;;;3.63;100.00;94857.25;5047992;28;20037;-60
2023/10/06 05:36:12;;;;;;;30.67;14.50;;;;;;;3.61;100.00;94863.03;5047702;28;20417;-59
2023/10/06 05:38:45;;;;;;;34.80;10.30;;;;;;;3.66;100.00;94861.97;5047746;28;20049;-59
2023/10/06 05:41:12;;;;;;;22.80;10.07;;;;;;;3.68;100.00;94870.56;5047312;28;20078;-59
2023/10/06 05:43:40;;;;;;;17.45;8.48;;;;;;;3.70;100.00;94869.09;5048166;28;20482;-59
2023/10/06 05:46:09;;;;;;;21.27;8.60;;;;;;;3.74;100.00;94872.69;5046318;28;20045;-59
2023/10/06 05:48:36;;;;;;;18.57;8.20;;;;;;;3.67;100.00;94874.44;5048138;28;20094;-59
2023/10/06 05:51:08;;;;;;;22.75;9.35;;;;;;;3.79;100.00;94887.94;5050050;28;20041;-59
2023/10/06 05:53:42;;;;;;;22.15;9.38;;;;;;;3.96;100.00;94873.22;5051743;28;20067;-59
2023/10/06 05:56:10;;;;;;;19.75;8.23;;;;;;;4.10;100.00;94870.09;5050904;28;20041;-59
2023/10/06 05:58:37;;;;;;;20.10;8.95;;;;;;;4.18;100.00;94866.41;5051701;28;20033;-59
2023/10/06 06:01:10;;;;;;;18.97;9.30;;;;;;;4.31;100.00;94867.91;5043903;28;20433;-59
2023/10/06 06:03:44;;;;;;;23.05;10.25;;;;;;;4.44;100.00;94870.50;5033220;28;20106;-59
2023/10/06 06:06:21;;;;;;;21.10;10.07;;;;;;;4.48;100.00;94871.38;5047626;28;20060;-60
2023/10/06 06:08:48;;;;;;;22.17;10.52;;;;;;;4.54;100.00;94862.59;5052163;28;20041;-60
2023/10/06 06:11:16;;;;;;;18.75;8.77;;;;;;;4.67;100.00;94879.59;5051643;28;20078;-59
2023/10/06 06:13:43;;;;;;;16.97;8.27;;;;;;;4.79;100.00;94882.19;5052025;28;20381;-59
2023/10/06 06:16:16;;;;;;;19.95;8.25;;;;;;;4.76;100.00;94885.63;5066398;28;20053;-59
2023/10/06 06:18:42;;;;;;;16.05;8.50;;;;;;;4.79;100.00;94886.84;5051718;28;20090;-59
2023/10/06 06:21:12;;;;;;;17.33;8.20;;;;;;;4.48;100.00;94874.09;5051064;28;20125;-59
2023/10/06 06:23:39;;;;;;;17.83;8.27;;;;;;;4.59;100.00;94884.09;5051938;28;20486;-59
2023/10/06 06:26:07;;;;;;;18.00;8.60;;;;;;;4.72;100.00;94882.03;5050254;28;20037;-59
2023/10/06 06:28:36;;;;;;;16.95;7.90;;;;;;;4.76;100.00;94893.78;5051654;28;20037;-59
2023/10/06 06:31:04;;;;;;;18.23;8.45;;;;;;;4.94;100.00;94894.16;5051433;28;20497;-59
2023/10/06 06:33:32;;;;;;;17.90;8.23;;;;;;;5.13;100.00;94903.50;5051747;28;20041;-59
2023/10/06 06:36:00;;;;;;;19.95;8.77;;;;;;;5.27;100.00;94903.81;5051271;28;20498;-58
2023/10/06 06:38:28;;;;;;;19.33;8.30;;;;;;;5.47;100.00;94906.53;5051415;28;20723;-59
2023/10/06 06:40:58;;;;;;;17.08;8.63;;;;;;;5.70;100.00;94909.34;5051125;28;20045;-59
2023/10/06 06:43:25;;;;;;;18.35;8.77;;;;;;;5.76;100.00;94908.69;5058355;28;20452;-59
2023/10/06 06:45:53;;;;;;;18.45;8.13;;;;;;;6.05;100.00;94908.44;5051409;28;20106;-59
2023/10/06 06:48:20;;;;;;;19.35;8.75;;;;;;;5.92;100.00;94911.31;5051080;28;20049;-59
2023/10/06 06:50:48;;;;;;;17.60;8.57;;;;;;;5.88;100.00;94915.91;5051499;28;20045;-59
2023/10/06 06:53:18;;;;;;;20.75;8.68;;;;;;;6.00;100.00;94907.59;5050977;28;20041;-59
2023/10/06 06:55:46;;;;;;;18.42;8.40;;;;;;;6.32;100.00;94917.50;5051318;28;20083;-59
2023/10/06 06:58:16;;;;;;;21.30;8.27;;;;;;;6.42;100.00;94907.91;5050494;28;20053;-59
2023/10/06 07:00:47;;;;;;;19.60;9.05;;;;;;;6.56;100.00;94908.94;5045513;28;20046;-59
2023/10/06 07:03:15;;;;;;;18.13;8.00;;;;;;;6.71;100.00;94899.03;5031142;28;20045;-59
2023/10/06 07:05:42;;;;;;;18.10;8.35;;;;;;;6.77;100.00;94900.28;5047153;28;20041;-60
2023/10/06 07:08:11;;;;;;;16.17;8.15;;;;;;;7.22;100.00;94897.00;5065651;28;20053;-60
2023/10/06 07:10:46;;;;;;;15.77;8.00;;;;;;;8.39;100.00;94892.06;5050891;28;20041;-59
2023/10/06 07:13:13;;;;;;;16.98;7.70;;;;;;;11.73;100.00;94892.13;5050536;28;20040;-60
2023/10/06 07:15:41;;;;;;;15.60;7.10;;;;;;;13.08;100.00;94891.66;5050878;28;20053;-60
2023/10/06 07:18:10;;;;;;;13.93;6.95;;;;;;;14.45;100.00;94890.91;5050234;28;20051;-60
2023/10/06 07:20:37;;;;;;;11.88;6.72;;;;;;;15.08;95.35;94904.94;5050660;28;20486;-60
2023/10/06 07:23:04;;;;;;;12.27;6.80;;;;;;;15.17;90.46;94896.06;5049840;28;20045;-61
2023/10/06 07:25:31;;;;;;;14.07;6.90;;;;;;;15.98;88.13;94890.25;5050461;28;20047;-61
2023/10/06 07:27:59;;;;;;;11.17;6.23;;;;;;;17.36;79.62;94883.13;5050124;28;20396;-61
2023/10/06 07:30:29;;;;;;;14.30;6.82;;;;;;;18.05;72.69;94877.34;5050510;28;20474;-60
2023/10/06 07:32:56;;;;;;;13.63;6.63;;;;;;;19.09;68.82;94885.28;5050286;28;20040;-60
2023/10/06 07:35:30;;;;;;;10.23;5.97;;;;;;;18.11;68.74;94885.88;5050767;28;20037;-61
2023/10/06 07:37:58;;;;;;;10.88;6.00;;;;;;;18.56;67.83;94885.72;5049867;28;20049;-61
2023/10/06 07:40:27;;;;;;;10.30;5.97;;;;;;;19.25;65.14;94884.34;5050489;28;20082;-59
2023/10/06 07:42:58;;;;;;;9.30;5.85;;;;;;;19.22;63.60;94879.69;5048961;28;20055;-58
2023/10/06 07:45:30;;;;;;;10.18;6.20;;;;;;;18.31;66.49;94888.47;5057135;28;21637;-59
2023/10/06 07:47:57;;;;;;;10.07;6.15;;;;;;;18.84;66.33;94886.09;5049934;28;20048;-58
2023/10/06 07:50:28;;;;;;;11.82;5.93;;;;;;;19.38;61.39;94889.91;5050275;28;20043;-59
2023/10/06 07:52:56;;;;;;;9.73;6.10;;;;;;;17.78;70.61;94883.22;5050345;28;20055;-59
2023/10/06 07:55:23;;;;;;;10.45;5.95;;;;;;;18.97;66.15;94877.72;5049335;28;21712;-58
2023/10/06 07:57:51;;;;;;;10.60;6.00;;;;;;;19.40;62.86;94881.88;5050051;28;20048;-59
2023/10/06 08:00:29;;;;;;;10.45;6.03;;;;;;;19.62;62.82;94886.69;5049716;28;20485;-59
2023/10/06 08:02:58;;;;;;;11.18;5.97;;;;;;;20.35;61.87;94886.50;5049679;28;20472;-58
2023/10/06 08:05:26;;;;;;;9.83;5.60;;;;;;;20.91;56.82;94876.41;5049840;28;20052;-59
2023/10/06 08:07:59;;;;;;;10.18;6.05;;;;;;;20.47;59.30;94866.09;5049304;28;20049;-58
2023/10/06 08:10:29;;;;;;;10.23;6.10;;;;;;;20.88;56.91;94863.34;5049581;28;20087;-59
2023/10/06 08:13:00;;;;;;;10.65;5.95;;;;;;;21.58;54.87;94860.88;5049752;28;20045;-58
2023/10/06 08:15:28;;;;;;;11.90;6.60;;;;;;;23.62;50.11;94855.41;5045320;28;20483;-59
2023/10/06 08:17:55;;;;;;;10.80;6.20;;;;;;;24.85;45.65;94865.34;5030537;28;20045;-59
2023/10/06 08:20:27;;;;;;;10.05;6.18;;;;;;;27.10;41.70;94864.34;5040379;28;20777;-60
2023/10/06 08:22:56;;;;;;;9.90;6.28;;;;;;;25.84;40.63;94856.47;5049697;28;20025;-60
2023/10/06 08:25:24;;;;;;;11.15;6.60;;;;;;;21.75;49.57;94866.94;5048535;28;21767;-61
2023/10/06 08:27:52;;;;;;;10.90;7.30;;;;;;;21.23;55.77;94869.50;5049448;28;20367;-60
2023/10/06 08:30:19;;;;;;;11.40;6.80;;;;;;;22.77;51.73;94873.13;5047443;28;20053;-60
2023/10/06 08:32:49;;;;;;;12.73;7.00;;;;;;;24.98;46.91;94873.44;5049290;28;20040;-60
2023/10/06 08:35:16;;;;;;;11.13;7.05;;;;;;;24.46;46.04;94873.06;5048559;28;20044;-60
2023/10/06 08:37:45;;;;;;;10.07;6.70;;;;;;;25.65;44.10;94864.41;5049456;28;20086;-61
2023/10/06 08:40:17;;;;;;;11.65;7.47;;;;;;;25.14;45.36;94872.13;5048620;28;20545;-61
2023/10/06 08:42:59;;;;;;;10.60;7.17;;;;;;;26.20;44.48;94868.38;5049592;28;20086;-61
2023/10/06 08:45:28;;;;;;;13.63;8.35;;;;;;;28.67;39.81;94865.50;5068751;28;20117;-61
2023/10/06 08:48:01;;;;;;;15.07;9.82;;;;;;;25.67;44.60;94864.69;5069488;28;20051;-61
2023/10/06 08:50:32;;;;;;;15.30;9.25;;;;;;;25.92;45.46;94866.06;5068288;28;20404;-61
2023/10/06 08:53:04;;;;;;;13.15;8.73;;;;;;;26.26;46.48;94869.25;5068840;28;20055;-61
2023/10/06 08:55:32;;;;;;;13.43;7.80;;;;;;;27.97;42.51;94867.13;5069018;28;20105;-60
2023/10/06 08:57:59;;;;;;;12.98;8.32;;;;;;;28.72;40.45;94866.81;5068883;28;20036;-61
2023/10/06 09:00:34;;;;;;;12.63;8.30;;;;;;;30.38;37.70;94856.88;5068836;28;20046;-61
2023/10/06 09:03:07;;;;;;;13.02;8.05;;;;;;;28.59;39.24;94859.59;5068727;28;20049;-61
2023/10/06 09:05:40;;;;;;;11.95;8.15;;;;;;;28.92;39.12;94855.25;5068855;28;20045;-61
2023/10/06 09:08:08;;;;;;;14.47;9.10;;;;;;;26.75;41.42;94850.50;5068869;28;20424;-61
2023/10/06 09:10:40;;;;;;;13.25;7.97;;;;;;;27.95;42.27;94852.75;5068773;28;20044;-61
2023/10/06 09:13:12;;;;;;;11.20;7.70;;;;;;;30.52;37.40;94851.41;5068560;28;20435;-61
2023/10/06 09:15:40;;;;;;;12.75;7.30;;;;;;;30.41;36.54;94843.75;5060604;28;20498;-61
2023/10/06 09:18:20;;;;;;;13.55;7.88;;;;;;;30.90;35.02;94838.25;5048634;28;20095;-61
2023/10/06 09:20:48;;;;;;;11.03;7.27;;;;;;;29.82;36.19;94840.16;5068646;28;20047;-60
2023/10/06 09:23:40;;;;;;;16.98;7.90;;;;;;;29.50;37.13;94834.88;5068409;28;20048;-60
2023/10/06 09:26:11;;;;;;;11.50;7.07;;;;;;;31.00;33.42;94836.59;5070947;28;20429;-60
2023/10/06 09:28:52;;;;;;;10.50;6.72;;;;;;;29.57;35.26;94848.47;5072816;28;20041;-61
2023/10/06 09:31:44;;;;;;;10.55;6.35;;;;;;;28.29;36.88;94842.31;5072440;28;20049;-60
2023/10/06 09:34:12;;;;;;;10.40;7.03;;;;;;;27.14;39.96;94844.38;5070431;28;20054;-61
2023/10/06 09:36:42;;;;;;;10.05;6.80;;;;;;;26.44;40.87;94837.94;5072679;28;20432;-60
2023/10/06 09:39:15;;;;;;;9.25;6.35;;;;;;;28.20;39.42;94834.13;5071844;28;20468;-60
2023/10/06 09:41:42;;;;;;;12.40;6.22;;;;;;;29.44;36.83;94834.13;5072890;28;20040;-61
2023/10/06 09:44:11;;;;;;;9.60;5.65;;;;;;;30.80;34.57;94837.78;5059055;28;20049;-61
2023/10/06 09:46:43;;;;;;;9.03;6.33;;;;;;;27.68;38.13;94838.78;5072549;28;20041;-60
2023/10/06 09:49:18;;;;;;;11.40;6.45;;;;;;;28.24;38.71;94841.03;5072150;28;20110;-61
2023/10/06 09:51:45;;;;;;;9.77;5.78;;;;;;;29.72;36.19;94839.72;5072527;28;20052;-61
2023/10/06 09:54:14;;;;;;;10.20;5.90;;;;;;;30.07;35.30;94830.53;5071746;28;20048;-60
2023/10/06 09:56:42;;;;;;;10.30;5.53;;;;;;;30.96;33.97;94832.53;5072273;28;20113;-60
2023/10/06 09:59:12;;;;;;;9.33;5.90;;;;;;;28.71;37.35;94825.72;5071345;28;20048;-60
2023/10/06 10:01:45;;;;;;;10.02;5.30;;;;;;;28.96;37.31;94824.69;5072204;28;20053;-60
2023/10/06 10:04:14;;;;;;;10.95;5.63;;;;;;;28.81;37.96;94824.16;5071491;28;20037;-61
2023/10/06 10:06:45;;;;;;;9.90;5.40;;;;;;;28.66;38.61;94830.09;5072240;28;20067;-60
2023/10/06 10:09:16;;;;;;;8.60;4.82;;;;;;;31.42;34.73;94822.28;5071532;28;20052;-60
2023/10/06 10:12:01;;;;;;;8.17;4.97;;;;;;;31.19;33.56;94830.25;5072040;28;20067;-61
2023/10/06 10:14:52;;;;;;;9.98;5.45;;;;;;;30.30;35.02;94821.94;5040088;28;20912;-61
2023/10/06 10:17:37;;;;;;;8.55;4.90;;;;;;;30.57;34.15;94819.44;5051245;28;20044;-61
2023/10/06 10:20:09;;;;;;;9.68;4.85;;;;;;;31.50;34.37;94813.97;5051363;28;20045;-61
2023/10/06 10:22:37;;;;;;;8.23;5.18;;;;;;;32.78;31.56;94819.25;5067303;28;20053;-61
2023/10/06 10:25:05;;;;;;;9.03;5.33;;;;;;;32.21;31.77;94819.28;5051110;28;20059;-62
2023/10/06 10:28:19;;;;;;;7.82;4.70;;;;;;;30.80;32.71;94820.00;5051904;28;20047;-62
2023/10/06 10:30:50;;;;;;;8.88;4.80;;;;;;;30.27;34.63;94817.28;5039792;28;21448;-61
2023/10/06 10:33:21;;;;;;;8.25;5.32;;;;;;;31.11;32.35;94813.06;5051288;28;20051;-61
2023/10/06 10:36:14;;;;;;;9.25;5.38;;;;;;;31.89;31.46;94804.97;5051446;28;20048;-62
2023/10/06 10:38:42;;;;;;;9.00;4.70;;;;;;;32.10;31.87;94804.50;5042495;28;21591;-62
2023/10/06 10:41:10;;;;;;;9.40;4.75;;;;;;;33.40;30.34;94803.16;5051079;28;20075;-61
2023/10/06 10:43:48;;;;;;;6.53;4.25;;;;;;;34.70;28.04;94798.38;5051453;28;20041;-62
2023/10/06 10:46:42;;;;;;;8.77;4.63;;;;;;;34.84;27.85;94789.75;5050620;28;20651;-62
2023/10/06 10:49:10;;;;;;;7.28;4.40;;;;;;;35.58;26.38;94792.25;5051016;28;20041;-62
2023/10/06 10:52:02;;;;;;;9.20;4.70;;;;;;;30.99;31.90;94798.25;5051484;28;20045;-61
2023/10/06 10:54:32;;;;;;;7.25;4.50;;;;;;;33.65;29.24;94788.75;5049641;28;20584;-61
2023/10/06 10:57:13;;;;;;;8.65;4.53;;;;;;;32.13;30.19;94789.19;5051121;28;20059;-61
2023/10/06 10:59:59;;;;;;;8.50;4.60;;;;;;;31.31;31.74;94789.16;5037181;28;20041;-61
2023/10/06 11:02:41;;;;;;;6.82;4.28;;;;;;;32.57;29.92;94781.34;5050322;28;20324;-61
2023/10/06 11:05:09;;;;;;;7.87;4.70;;;;;;;30.02;32.87;94777.56;5070704;28;20051;-61
2023/10/06 11:07:36;;;;;;;8.93;4.72;;;;;;;31.60;31.47;94773.34;5071045;28;20395;-61
2023/10/06 11:10:04;;;;;;;7.90;4.57;;;;;;;33.43;29.39;94763.00;5070385;28;20074;-61
2023/10/06 11:12:30;;;;;;;9.80;4.75;;;;;;;33.37;28.87;94764.44;5070930;28;20440;-61
2023/10/06 11:15:16;;;;;;;7.60;4.68;;;;;;;33.89;28.12;94765.72;5068660;28;20044;-61
2023/10/06 11:17:44;;;;;;;7.40;4.30;;;;;;;35.05;26.56;94756.25;5071296;28;20520;-61
2023/10/06 11:20:27;;;;;;;7.05;4.15;;;;;;;35.48;26.27;94754.88;5069988;28;20056;-61
2023/10/06 11:22:59;;;;;;;7.78;4.20;;;;;;;32.82;29.00;94757.16;5071045;28;20043;-62
2023/10/06 11:25:28;;;;;;;7.82;4.50;;;;;;;32.50;29.06;94745.00;5069507;28;20584;-61
2023/10/06 11:28:04;;;;;;;7.55;4.18;;;;;;;31.53;30.56;94745.59;5070107;28;20392;-60
2023/10/06 11:30:33;;;;;;;7.33;3.70;;;;;;;30.61;32.10;94741.38;5049758;28;20102;-61
2023/10/06 11:33:02;;;;;;;8.40;4.30;;;;;;;28.68;34.06;94752.03;5050002;28;20047;-61
2023/10/06 11:35:31;;;;;;;6.47;4.10;;;;;;;28.31;34.62;94737.38;5050618;28;20037;-60
2023/10/06 11:37:58;;;;;;;7.70;4.10;;;;;;;26.33;38.68;94741.38;5049917;28;20059;-60
2023/10/06 11:40:26;;;;;;;7.47;4.40;;;;;;;25.29;40.93;94738.06;5050298;28;20041;-60
2023/10/06 11:42:53;;;;;;;7.60;4.23;;;;;;;23.92;43.78;94741.34;5049340;28;20067;-61
2023/10/06 11:45:24;;;;;;;7.80;4.00;;;;;;;24.27;44.23;94737.84;5049772;28;20047;-60
2023/10/06 11:47:52;;;;;;;11.60;4.60;;;;;;;23.47;46.22;94732.88;5050103;28;20051;-60
2023/10/06 11:50:24;;;;;;;7.50;4.18;;;;;;;23.15;47.39;94736.56;5049664;28;20114;-60
2023/10/06 11:52:52;;;;;;;7.47;4.22;;;;;;;22.67;49.00;94732.50;5050141;28;20062;-60
2023/10/06 11:55:30;;;;;;;8.97;4.10;;;;;;;22.62;50.39;94726.78;5057843;28;20090;-60
2023/10/06 11:58:01;;;;;;;8.18;4.30;;;;;;;23.23;49.66;94724.53;5048159;28;20060;-60